createdAt,value
2019-05-20T00:01:43.286Z,18.89
2019-05-20T00:04:12.002Z,18.73
2019-05-20T00:06:40.746Z,18.77
2019-05-20T00:09:09.463Z,18.71
2019-05-20T00:11:38.234Z,18.64
2019-05-20T00:14:06.960Z,18.53
2019-05-20T00:16:35.673Z,18.64
2019-05-20T00:19:04.395Z,18.49
2019-05-20T00:21:33.122Z,18.46
2019-05-20T00:24:01.884Z,18.46
2019-05-20T00:26:30.601Z,18.57
2019-05-20T00:28:59.316Z,18.53
2019-05-20T00:31:28.075Z,18.46
2019-05-20T00:33:56.803Z,18.41
2019-05-20T00:36:25.587Z,18.43
2019-05-20T00:38:55.881Z,18.40
2019-05-20T00:41:24.603Z,18.30
2019-05-20T00:43:53.325Z,17.97
2019-05-20T00:46:22.042Z,18.10
2019-05-20T00:48:50.840Z,18.22
2019-05-20T00:51:19.558Z,18.37
2019-05-20T00:53:48.278Z,18.41
2019-05-20T00:56:16.983Z,18.47
2019-05-20T00:58:45.711Z,18.59
2019-05-20T01:03:52.040Z,18.53
2019-05-20T01:06:20.741Z,18.66
2019-05-20T01:08:49.452Z,18.69
2019-05-20T01:11:18.156Z,18.61
2019-05-20T01:13:46.926Z,18.47
2019-05-20T01:16:15.616Z,18.53
2019-05-20T01:18:44.324Z,18.54
2019-05-20T01:21:13.034Z,18.24
2019-05-20T01:23:41.727Z,18.27
2019-05-20T01:26:10.487Z,18.33
2019-05-20T01:28:39.184Z,18.25
2019-05-20T01:31:07.917Z,18.17
2019-05-20T01:33:36.594Z,18.14
2019-05-20T01:36:05.304Z,18.08
2019-05-20T01:38:34.053Z,18.01
2019-05-20T01:41:02.755Z,18.03
2019-05-20T01:43:31.463Z,18.03
2019-05-20T01:46:00.173Z,18.10
2019-05-20T01:48:28.873Z,18.15
2019-05-20T01:50:57.623Z,18.10
2019-05-20T01:53:26.346Z,18.09
2019-05-20T01:55:55.029Z,18.03
2019-05-20T01:58:23.733Z,18.01
2019-05-20T02:00:52.437Z,18.03
2019-05-20T02:03:31.235Z,18.04
2019-05-20T02:05:51.695Z,18.03
2019-05-20T02:08:20.449Z,18.04
2019-05-20T02:10:49.252Z,17.73
2019-05-20T02:13:18.005Z,17.60
2019-05-20T02:15:57.439Z,17.49
2019-05-20T02:18:26.746Z,17.60
2019-05-20T02:20:55.487Z,17.54
2019-05-20T02:23:24.692Z,17.48
2019-05-20T02:25:53.395Z,17.39
2019-05-20T02:28:22.146Z,17.28
2019-05-20T02:30:50.834Z,17.32
2019-05-20T02:33:19.568Z,17.29
2019-05-20T02:35:48.307Z,17.18
2019-05-20T02:38:17.023Z,17.14
2019-05-20T02:40:45.737Z,17.19
2019-05-20T02:43:14.511Z,17.14
2019-05-20T02:45:43.223Z,17.07
2019-05-20T02:48:11.933Z,17.00
2019-05-20T02:50:40.696Z,16.89
2019-05-20T02:53:09.407Z,16.83
2019-05-20T02:55:38.125Z,16.82
2019-05-20T02:58:06.833Z,16.88
2019-05-20T03:00:35.645Z,16.70
2019-05-20T03:03:05.432Z,16.78
2019-05-20T03:05:34.148Z,16.62
2019-05-20T03:08:02.852Z,16.81
2019-05-20T03:10:31.563Z,16.78
2019-05-20T03:13:00.267Z,16.88
2019-05-20T03:15:29.006Z,16.90
2019-05-20T03:17:57.713Z,16.91
2019-05-20T03:20:26.417Z,16.96
2019-05-20T03:22:55.123Z,16.95
2019-05-20T03:25:23.837Z,16.91
2019-05-20T03:27:52.583Z,16.86
2019-05-20T03:30:21.367Z,16.82
2019-05-20T03:32:50.079Z,16.88
2019-05-20T03:35:18.792Z,16.93
2019-05-20T03:37:47.492Z,17.01
2019-05-20T03:40:16.277Z,17.13
2019-05-20T03:42:44.972Z,17.22
2019-05-20T03:45:13.788Z,17.24
2019-05-20T03:47:42.525Z,17.33
2019-05-20T03:50:11.631Z,17.55
2019-05-20T03:52:40.399Z,17.58
2019-05-20T03:55:09.300Z,17.40
2019-05-20T03:57:37.996Z,17.72
2019-05-20T04:00:08.328Z,17.79
2019-05-20T04:02:37.030Z,17.82
2019-05-20T04:05:06.839Z,17.92
2019-05-20T04:07:35.550Z,17.99
2019-05-20T04:10:07.801Z,18.15
2019-05-20T04:12:36.504Z,18.50
2019-05-20T04:15:06.024Z,18.59
2019-05-20T04:17:34.749Z,18.27
2019-05-20T04:20:03.543Z,18.01
2019-05-20T04:22:32.297Z,17.85
2019-05-20T04:25:01.003Z,17.98
2019-05-20T04:27:29.705Z,18.28
2019-05-20T04:29:58.428Z,18.76
2019-05-20T04:32:27.143Z,19.25
2019-05-20T04:34:55.899Z,19.60
2019-05-20T04:37:24.605Z,19.90
2019-05-20T04:39:53.398Z,20.01
2019-05-20T04:42:22.104Z,19.89
2019-05-20T04:44:50.816Z,19.98
2019-05-20T04:47:19.581Z,20.26
2019-05-20T04:49:48.276Z,20.78
2019-05-20T04:52:16.985Z,21.30
2019-05-20T04:54:45.773Z,21.67
2019-05-20T04:57:14.483Z,22.46
2019-05-20T04:59:43.249Z,23.25
2019-05-20T05:02:11.954Z,23.98
2019-05-20T05:04:40.668Z,24.44
2019-05-20T05:07:09.382Z,24.41
2019-05-20T05:09:38.090Z,24.18
2019-05-20T05:12:06.951Z,24.27
2019-05-20T05:14:35.659Z,24.59
2019-05-20T05:17:07.126Z,25.17
2019-05-20T05:19:35.848Z,25.23
2019-05-20T05:22:04.553Z,25.38
2019-05-20T05:24:33.292Z,25.74
2019-05-20T05:27:03.494Z,25.36
2019-05-20T05:29:32.301Z,24.94
2019-05-20T05:32:01.018Z,24.99
2019-05-20T05:34:29.727Z,24.97
2019-05-20T05:36:58.470Z,24.69
2019-05-20T05:39:27.181Z,25.18
2019-05-20T05:41:55.891Z,25.22
2019-05-20T05:44:24.599Z,24.94
2019-05-20T05:46:53.303Z,24.69
2019-05-20T05:49:22.100Z,25.03
2019-05-20T05:51:50.857Z,25.87
2019-05-20T05:54:19.567Z,26.07
2019-05-20T05:56:49.271Z,26.60
2019-05-20T05:59:18.155Z,26.96
2019-05-20T06:01:47.017Z,26.63
2019-05-20T06:04:15.722Z,25.85
2019-05-20T06:06:44.426Z,25.30
2019-05-20T06:09:13.135Z,24.80
2019-05-20T06:11:41.837Z,24.29
2019-05-20T06:14:10.591Z,24.00
2019-05-20T06:16:39.392Z,23.72
2019-05-20T06:19:08.095Z,23.81
2019-05-20T06:21:36.807Z,23.58
2019-05-20T06:24:05.512Z,23.25
2019-05-20T06:26:34.278Z,23.18
2019-05-20T06:29:03.159Z,23.13
2019-05-20T06:31:32.085Z,22.96
2019-05-20T06:34:00.949Z,23.18
2019-05-20T06:36:29.661Z,23.52
2019-05-20T06:39:14.265Z,23.80
2019-05-20T06:41:43.670Z,23.98
2019-05-20T06:44:12.443Z,24.20
2019-05-20T06:46:41.142Z,24.09
2019-05-20T06:49:09.874Z,24.24
2019-05-20T06:51:38.588Z,24.02
2019-05-20T06:54:07.289Z,24.23
2019-05-20T06:56:36.058Z,24.24
2019-05-20T06:59:04.766Z,24.34
2019-05-20T07:01:33.466Z,24.37
2019-05-20T07:04:02.202Z,24.12
2019-05-20T07:06:45.877Z,24.30
2019-05-20T07:09:01.397Z,24.19
2019-05-20T07:11:30.118Z,24.03
2019-05-20T07:13:58.837Z,23.96
2019-05-20T07:16:27.554Z,23.95
2019-05-20T07:18:56.256Z,23.81
2019-05-20T07:21:25.033Z,23.49
2019-05-20T07:23:53.729Z,23.53
2019-05-20T07:26:22.429Z,23.65
2019-05-20T07:28:51.159Z,23.88
2019-05-20T07:31:20.689Z,23.96
2019-05-20T07:33:49.436Z,23.84
2019-05-20T07:36:18.136Z,23.89
2019-05-20T07:38:46.845Z,24.01
2019-05-20T07:41:15.563Z,23.58
2019-05-20T07:43:44.256Z,23.97
2019-05-20T07:46:13.514Z,24.34
2019-05-20T07:48:42.443Z,24.68
2019-05-20T07:51:12.723Z,24.52
2019-05-20T07:53:42.359Z,24.66
2019-05-20T07:56:26.081Z,25.01
2019-05-20T07:58:57.690Z,25.09
2019-05-20T08:01:26.429Z,25.04
2019-05-20T08:03:55.170Z,24.89
2019-05-20T08:06:24.208Z,25.08
2019-05-20T08:08:53.098Z,25.29
2019-05-20T08:11:21.821Z,25.36
2019-05-20T08:13:50.527Z,24.58
2019-05-20T08:16:19.283Z,24.89
2019-05-20T08:18:48.007Z,25.11
2019-05-20T08:21:16.699Z,25.21
2019-05-20T08:23:45.431Z,25.25
2019-05-20T08:26:14.170Z,25.24
2019-05-20T08:28:42.889Z,25.29
2019-05-20T08:31:11.645Z,25.46
2019-05-20T08:33:41.907Z,25.53
2019-05-20T08:36:10.616Z,25.69
2019-05-20T08:38:39.500Z,25.74
2019-05-20T08:41:08.192Z,25.80
2019-05-20T08:43:36.901Z,25.87
2019-05-20T08:46:05.677Z,25.81
2019-05-20T08:48:34.347Z,25.77
2019-05-20T08:51:03.135Z,25.84
2019-05-20T08:53:31.852Z,25.62
2019-05-20T08:56:00.564Z,24.63
2019-05-20T08:58:29.320Z,24.13
2019-05-20T09:00:58.033Z,24.43
2019-05-20T09:03:30.191Z,24.87
2019-05-20T09:05:57.265Z,24.73
2019-05-20T09:08:25.965Z,24.61
2019-05-20T09:10:54.729Z,24.58
2019-05-20T09:13:23.435Z,24.82
2019-05-20T09:15:52.168Z,25.03
2019-05-20T09:18:20.933Z,24.93
2019-05-20T09:20:49.655Z,25.07
2019-05-20T09:23:18.403Z,24.98
2019-05-20T09:25:47.102Z,25.21
2019-05-20T09:28:15.817Z,25.30
2019-05-20T09:30:44.622Z,25.03
2019-05-20T09:33:13.336Z,24.97
2019-05-20T09:35:42.499Z,24.89
2019-05-20T09:38:19.996Z,24.98
2019-05-20T09:40:45.080Z,25.09
2019-05-20T09:43:13.838Z,25.07
2019-05-20T09:45:42.538Z,24.59
2019-05-20T09:48:12.660Z,24.83
2019-05-20T09:50:41.374Z,25.12
2019-05-20T09:53:10.616Z,25.01
2019-05-20T09:55:39.732Z,24.81
2019-05-20T09:58:08.539Z,25.03
2019-05-20T10:00:37.255Z,25.18
2019-05-20T10:03:07.237Z,25.47
2019-05-20T10:05:37.646Z,25.73
2019-05-20T10:08:06.926Z,25.18
2019-05-20T10:10:35.628Z,25.06
2019-05-20T10:13:04.481Z,25.28
2019-05-20T10:15:33.230Z,25.64
2019-05-20T10:18:02.003Z,25.10
2019-05-20T10:20:30.684Z,25.30
2019-05-20T10:22:59.411Z,25.45
2019-05-20T10:25:28.111Z,25.71
2019-05-20T10:27:57.747Z,25.98
2019-05-20T10:30:26.968Z,25.88
2019-05-20T10:32:55.673Z,25.85
2019-05-20T10:35:24.375Z,25.38
2019-05-20T10:37:53.109Z,25.20
2019-05-20T10:40:21.817Z,25.28
2019-05-20T10:42:50.611Z,25.20
2019-05-20T10:45:19.388Z,25.57
2019-05-20T10:47:48.099Z,25.59
2019-05-20T10:50:18.759Z,25.66
2019-05-20T10:52:47.458Z,25.99
2019-05-20T10:55:16.410Z,26.14
2019-05-20T10:57:45.128Z,26.42
2019-05-20T11:00:15.139Z,26.25
2019-05-20T11:02:43.862Z,26.50
2019-05-20T11:05:12.555Z,26.75
2019-05-20T11:07:41.341Z,26.89
2019-05-20T11:10:10.499Z,27.11
2019-05-20T11:12:39.211Z,27.11
2019-05-20T11:15:08.429Z,27.08
2019-05-20T11:17:37.135Z,26.52
2019-05-20T11:20:08.361Z,26.20
2019-05-20T11:22:37.067Z,26.21
2019-05-20T11:25:07.894Z,26.18
2019-05-20T11:27:36.607Z,26.06
2019-05-20T11:30:09.221Z,26.28
2019-05-20T11:32:38.087Z,26.44
2019-05-20T11:35:08.600Z,26.60
2019-05-20T11:37:37.315Z,26.75
2019-05-20T11:40:12.078Z,26.62
2019-05-20T11:42:41.261Z,26.31
2019-05-20T11:45:10.427Z,26.38
2019-05-20T11:47:39.124Z,26.59
2019-05-20T11:50:09.691Z,26.64
2019-05-20T11:52:38.852Z,26.77
2019-05-20T11:55:08.653Z,27.19
2019-05-20T11:57:37.424Z,27.19
2019-05-20T12:00:10.748Z,27.13
2019-05-20T12:02:39.468Z,27.13
2019-05-20T12:05:08.982Z,27.25
2019-05-20T12:07:37.691Z,27.50
2019-05-20T12:10:11.321Z,27.60
2019-05-20T12:12:40.018Z,27.82
2019-05-20T12:15:10.259Z,27.85
2019-05-20T12:17:38.990Z,27.84
2019-05-20T12:20:12.520Z,27.60
2019-05-20T12:22:41.590Z,27.24
2019-05-20T12:25:10.400Z,27.69
2019-05-20T12:27:39.112Z,27.69
2019-05-20T12:30:09.942Z,27.71
2019-05-20T12:32:38.660Z,27.83
2019-05-20T12:35:08.608Z,27.82
2019-05-20T12:37:37.317Z,27.79
2019-05-20T12:40:08.491Z,27.47
2019-05-20T12:42:37.738Z,27.51
2019-05-20T12:45:09.630Z,27.62
2019-05-20T12:47:38.359Z,27.97
2019-05-20T12:50:07.472Z,28.15
2019-05-20T12:52:36.185Z,28.29
2019-05-20T12:55:09.991Z,28.21
2019-05-20T12:57:38.999Z,28.23
2019-05-20T13:00:12.790Z,28.37
2019-05-20T13:02:44.393Z,28.59
2019-05-20T13:05:14.453Z,28.74
2019-05-20T13:07:43.177Z,29.03
2019-05-20T13:10:27.686Z,29.05
2019-05-20T13:12:42.551Z,29.07
2019-05-20T13:15:13.055Z,29.03
2019-05-20T13:17:44.670Z,28.91
2019-05-20T13:20:12.519Z,29.08
2019-05-20T13:22:41.232Z,29.40
2019-05-20T13:25:10.094Z,29.43
2019-05-20T13:27:38.793Z,29.46
2019-05-20T13:30:10.003Z,29.70
2019-05-20T13:32:38.713Z,29.63
2019-05-20T13:35:08.021Z,29.33
2019-05-20T13:37:36.771Z,28.92
2019-05-20T13:40:09.366Z,28.95
2019-05-20T13:42:38.094Z,28.93
2019-05-20T13:45:07.027Z,28.89
2019-05-20T13:47:35.795Z,28.88
2019-05-20T13:50:07.632Z,28.82
2019-05-20T13:52:36.373Z,29.10
2019-05-20T13:55:05.287Z,29.15
2019-05-20T13:57:34.012Z,29.35
2019-05-20T14:00:02.788Z,29.19
2019-05-20T14:02:31.502Z,29.15
2019-05-20T14:05:00.222Z,29.02
2019-05-20T14:07:28.939Z,28.93
2019-05-20T14:09:57.655Z,28.80
2019-05-20T14:12:26.369Z,28.92
2019-05-20T14:14:55.104Z,28.97
2019-05-20T14:17:23.830Z,28.61
2019-05-20T14:19:52.529Z,28.25
2019-05-20T14:22:21.276Z,28.25
2019-05-20T14:24:49.992Z,28.23
2019-05-20T14:27:18.707Z,28.00
2019-05-20T14:29:47.426Z,27.39
2019-05-20T14:32:16.141Z,26.90
2019-05-20T14:34:44.879Z,26.20
2019-05-20T14:37:13.626Z,25.59
2019-05-20T14:39:42.352Z,25.45
2019-05-20T14:42:11.151Z,25.40
2019-05-20T14:44:39.843Z,25.27
2019-05-20T14:47:08.601Z,25.23
2019-05-20T14:49:37.318Z,25.00
2019-05-20T14:52:06.026Z,25.13
2019-05-20T14:54:34.750Z,25.11
2019-05-20T14:57:03.465Z,24.61
2019-05-20T14:59:32.242Z,24.55
2019-05-20T15:02:00.928Z,24.51
2019-05-20T15:04:29.637Z,24.41
2019-05-20T15:06:58.359Z,24.05
2019-05-20T15:09:27.066Z,24.12
2019-05-20T15:11:55.841Z,23.99
2019-05-20T15:14:24.550Z,23.82
2019-05-20T15:16:53.250Z,23.94
2019-05-20T15:19:21.999Z,23.95
2019-05-20T15:21:50.737Z,23.69
2019-05-20T15:24:19.495Z,23.64
2019-05-20T15:26:48.274Z,23.74
2019-05-20T15:29:27.725Z,23.76
2019-05-20T15:31:47.444Z,23.64
2019-05-20T15:34:16.137Z,23.55
2019-05-20T15:36:44.903Z,23.53
2019-05-20T15:39:13.650Z,23.43
2019-05-20T15:41:42.361Z,23.34
2019-05-20T15:44:11.406Z,23.12
2019-05-20T15:46:40.557Z,23.00
2019-05-20T15:49:09.258Z,22.77
2019-05-20T15:51:37.978Z,22.73
2019-05-20T15:54:06.685Z,22.56
2019-05-20T15:56:35.515Z,22.55
2019-05-20T15:59:04.371Z,22.33
2019-05-20T16:01:33.075Z,22.21
2019-05-20T16:04:01.791Z,22.16
2019-05-20T16:06:30.508Z,21.93
2019-05-20T16:08:59.245Z,21.70
2019-05-20T16:11:27.977Z,21.84
2019-05-20T16:13:56.690Z,21.99
2019-05-20T16:16:25.402Z,22.19
2019-05-20T16:18:54.112Z,22.38
2019-05-20T16:21:22.914Z,23.83
2019-05-20T16:23:51.673Z,24.11
2019-05-20T16:26:20.371Z,23.72
2019-05-20T16:28:49.105Z,23.44
2019-05-20T16:31:17.805Z,22.39
2019-05-20T16:33:46.548Z,22.39
2019-05-20T16:36:15.248Z,22.33
2019-05-20T16:38:43.964Z,22.05
2019-05-20T16:41:13.206Z,21.67
2019-05-20T16:43:41.915Z,21.79
2019-05-20T16:46:10.619Z,21.82
2019-05-20T16:48:39.389Z,21.82
2019-05-20T16:51:08.319Z,21.69
2019-05-20T16:53:37.066Z,21.60
2019-05-20T16:56:05.789Z,21.53
2019-05-20T16:58:34.496Z,21.48
2019-05-20T17:01:03.246Z,21.44
2019-05-20T17:03:31.948Z,21.43
2019-05-20T17:06:00.659Z,21.40
2019-05-20T17:08:29.366Z,21.36
2019-05-20T17:10:58.070Z,21.22
2019-05-20T17:13:26.812Z,21.22
2019-05-20T17:15:55.528Z,21.14
2019-05-20T17:18:24.259Z,21.01
2019-05-20T17:20:52.961Z,21.09
2019-05-20T17:23:21.673Z,21.06
2019-05-20T17:25:50.953Z,21.08
2019-05-20T17:28:19.794Z,21.00
2019-05-20T17:30:48.519Z,20.95
2019-05-20T17:33:17.272Z,20.83
2019-05-20T17:35:45.970Z,20.72
2019-05-20T17:38:14.674Z,20.69
2019-05-20T17:40:43.381Z,20.54
2019-05-20T17:43:12.087Z,20.46
2019-05-20T17:45:40.842Z,20.50
2019-05-20T17:48:09.649Z,20.42
2019-05-20T17:50:38.456Z,20.28
2019-05-20T17:53:07.165Z,20.14
2019-05-20T17:55:35.931Z,20.24
2019-05-20T17:58:04.602Z,20.14
2019-05-20T18:00:33.358Z,20.10
2019-05-20T18:03:02.079Z,20.07
2019-05-20T18:05:30.810Z,20.13
2019-05-20T18:07:59.532Z,20.03
2019-05-20T18:10:29.072Z,20.04
2019-05-20T18:12:57.770Z,20.08
2019-05-20T18:15:26.511Z,20.11
2019-05-20T18:17:55.217Z,20.15
2019-05-20T18:20:23.915Z,20.11
2019-05-20T18:22:52.636Z,20.12
2019-05-20T18:25:21.339Z,20.04
2019-05-20T18:27:50.107Z,20.13
2019-05-20T18:30:19.009Z,19.90
2019-05-20T18:32:47.707Z,19.97
2019-05-20T18:35:16.521Z,19.96
2019-05-20T18:37:45.234Z,19.89
2019-05-20T18:40:15.053Z,19.82
2019-05-20T18:42:44.071Z,19.94
2019-05-20T18:45:12.973Z,19.98
2019-05-20T18:47:41.693Z,19.99
2019-05-20T18:50:10.694Z,19.85
2019-05-20T18:52:39.444Z,19.67
2019-05-20T18:55:09.002Z,19.63
2019-05-20T18:57:37.725Z,19.52
2019-05-20T19:00:08.349Z,19.44
2019-05-20T19:02:37.049Z,19.56
2019-05-20T19:05:07.813Z,19.43
2019-05-20T19:07:36.518Z,19.55
2019-05-20T19:10:06.727Z,19.65
2019-05-20T19:12:35.508Z,19.68
2019-05-20T19:15:05.307Z,19.81
2019-05-20T19:17:34.230Z,19.86
2019-05-20T19:20:03.175Z,19.88
2019-05-20T19:22:31.884Z,19.95
2019-05-20T19:25:00.609Z,19.66
2019-05-20T19:27:30.754Z,19.33
2019-05-20T19:29:59.505Z,19.41
2019-05-20T19:32:28.203Z,19.68
2019-05-20T19:34:56.925Z,19.79
2019-05-20T19:37:25.680Z,19.81
2019-05-20T19:39:54.401Z,19.74
2019-05-20T19:42:23.106Z,19.59
2019-05-20T19:44:51.819Z,19.74
2019-05-20T19:47:20.529Z,19.76
2019-05-20T19:49:49.280Z,19.78
2019-05-20T19:52:17.981Z,19.63
2019-05-20T19:54:46.678Z,19.50
2019-05-20T19:57:15.432Z,19.48
2019-05-20T19:59:44.134Z,19.44
2019-05-20T20:02:17.618Z,19.43
2019-05-20T20:04:43.281Z,19.31
2019-05-20T20:07:12.006Z,18.96
2019-05-20T20:09:40.736Z,19.03
2019-05-20T20:12:10.315Z,18.95
2019-05-20T20:14:39.027Z,18.91
2019-05-20T20:17:07.774Z,18.97
2019-05-20T20:19:36.499Z,18.94
2019-05-20T20:22:05.203Z,19.04
2019-05-20T20:24:33.924Z,19.06
2019-05-20T20:27:02.633Z,19.00
2019-05-20T20:29:31.441Z,19.06
2019-05-20T20:32:00.134Z,19.04
2019-05-20T20:34:30.636Z,19.03
2019-05-20T20:36:59.327Z,18.95
2019-05-20T20:39:28.039Z,19.01
2019-05-20T20:41:56.749Z,18.95
2019-05-20T20:44:25.472Z,18.94
2019-05-20T20:46:54.170Z,18.98
2019-05-20T20:49:22.916Z,18.99
2019-05-20T20:51:51.625Z,18.98
2019-05-20T20:54:20.331Z,18.97
2019-05-20T20:56:49.078Z,18.96
2019-05-20T20:59:17.786Z,18.95
2019-05-20T21:01:46.484Z,18.11
2019-05-20T21:04:15.242Z,17.49
2019-05-20T21:06:43.962Z,17.52
2019-05-20T21:09:12.669Z,17.75
2019-05-20T21:11:41.387Z,17.81
2019-05-20T21:14:10.095Z,17.92
2019-05-20T21:16:38.839Z,17.97
2019-05-20T21:19:07.541Z,17.98
2019-05-20T21:21:36.251Z,18.01
2019-05-20T21:24:04.995Z,17.76
2019-05-20T21:26:33.698Z,17.54
2019-05-20T21:29:02.412Z,17.37
2019-05-20T21:31:31.124Z,17.24
2019-05-20T21:33:59.835Z,17.07
2019-05-20T21:36:28.575Z,17.01
2019-05-20T21:38:57.276Z,17.05
2019-05-20T21:41:25.982Z,16.96
2019-05-20T21:43:54.703Z,16.99
2019-05-20T21:46:23.407Z,17.00
2019-05-20T21:48:52.152Z,16.86
2019-05-20T21:51:20.869Z,16.88
2019-05-20T21:53:49.567Z,16.75
2019-05-20T21:56:18.318Z,16.78
2019-05-20T21:58:47.011Z,16.78
2019-05-20T22:01:15.867Z,16.81
2019-05-20T22:03:44.658Z,16.67
2019-05-20T22:06:13.406Z,16.69
2019-05-20T22:08:42.153Z,16.61
2019-05-20T22:11:10.953Z,16.67
2019-05-20T22:13:40.709Z,16.66
2019-05-20T22:16:09.450Z,16.58
2019-05-20T22:18:38.254Z,16.48
2019-05-20T22:21:08.598Z,16.44
2019-05-20T22:23:38.914Z,16.45
2019-05-20T22:26:07.702Z,16.32
2019-05-20T22:28:36.447Z,16.21
2019-05-20T22:31:05.197Z,16.16
2019-05-20T22:33:41.418Z,16.08
2019-05-20T22:36:04.559Z,16.10
2019-05-20T22:38:33.303Z,16.06
2019-05-20T22:41:02.091Z,16.00
2019-05-20T22:43:30.833Z,15.98
2019-05-20T22:45:59.574Z,15.91
2019-05-20T22:48:28.318Z,15.99
2019-05-20T22:50:57.058Z,15.99
2019-05-20T22:53:25.843Z,15.92
2019-05-20T22:55:54.587Z,15.87
2019-05-20T22:58:23.331Z,15.90
2019-05-20T23:00:52.080Z,15.99
2019-05-20T23:03:20.828Z,16.00
2019-05-20T23:05:49.615Z,15.97
2019-05-20T23:08:18.363Z,15.94
2019-05-20T23:10:47.100Z,16.00
2019-05-20T23:13:15.847Z,15.95
2019-05-20T23:15:44.590Z,16.05
2019-05-20T23:18:13.393Z,16.10
2019-05-20T23:20:42.129Z,16.08
2019-05-20T23:23:10.879Z,16.08
2019-05-20T23:25:39.622Z,16.05
2019-05-20T23:28:08.360Z,16.07
2019-05-20T23:30:37.143Z,16.09
2019-05-20T23:33:05.905Z,16.02
2019-05-20T23:35:34.629Z,16.09
2019-05-20T23:38:03.377Z,16.11
2019-05-20T23:40:32.128Z,16.10
2019-05-20T23:43:00.872Z,16.16
2019-05-20T23:45:29.583Z,16.17
2019-05-20T23:47:58.283Z,16.27
2019-05-20T23:50:27.041Z,16.12
2019-05-20T23:52:55.740Z,16.15
2019-05-20T23:55:24.444Z,16.14
2019-05-20T23:57:53.150Z,16.14
